sensor_id;sensor_type;location;lat;lon;timestamp;P1;durP1;ratioP1;P2;durP2;ratioP2
3022;SDS011;1521;53.584;9.938;2023-04-07T00:00:56;17.17;;;12.53;;
3022;SDS011;1521;53.584;9.938;2023-04-07T00:03:22;20.23;;;12.57;;
3022;SDS011;1521;53.584;9.938;2023-04-07T00:05:47;16.63;;;11.80;;
3022;SDS011;1521;53.584;9.938;2023-04-07T00:08:13;19.40;;;12.90;;
3022;SDS011;1521;53.584;9.938;2023-04-07T00:10:39;17.83;;;12.83;;
3022;SDS011;1521;53.584;9.938;2023-04-07T00:13:05;16.03;;;11.57;;
3022;SDS011;1521;53.584;9.938;2023-04-07T00:15:30;16.77;;;11.90;;
3022;SDS011;1521;53.584;9.938;2023-04-07T00:17:56;17.77;;;11.63;;
3022;SDS011;1521;53.584;9.938;2023-04-07T00:20:21;19.40;;;12.30;;
3022;SDS011;1521;53.584;9.938;2023-04-07T00:22:47;17.20;;;12.50;;
3022;SDS011;1521;53.584;9.938;2023-04-07T00:25:13;21.10;;;12.30;;
3022;SDS011;1521;53.584;9.938;2023-04-07T00:27:38;21.03;;;12.87;;
3022;SDS011;1521;53.584;9.938;2023-04-07T00:30:04;18.97;;;13.00;;
3022;SDS011;1521;53.584;9.938;2023-04-07T00:32:31;18.03;;;12.40;;
3022;SDS011;1521;53.584;9.938;2023-04-07T00:34:56;20.53;;;12.53;;
3022;SDS011;1521;53.584;9.938;2023-04-07T00:37:22;22.03;;;13.00;;
3022;SDS011;1521;53.584;9.938;2023-04-07T00:39:49;21.20;;;12.90;;
3022;SDS011;1521;53.584;9.938;2023-04-07T00:42:15;22.17;;;12.67;;
3022;SDS011;1521;53.584;9.938;2023-04-07T00:44:41;16.93;;;12.20;;
3022;SDS011;1521;53.584;9.938;2023-04-07T00:47:07;15.10;;;12.07;;
3022;SDS011;1521;53.584;9.938;2023-04-07T00:49:32;20.30;;;13.17;;
3022;SDS011;1521;53.584;9.938;2023-04-07T00:51:58;17.83;;;12.40;;
3022;SDS011;1521;53.584;9.938;2023-04-07T00:54:25;17.70;;;12.63;;
3022;SDS011;1521;53.584;9.938;2023-04-07T00:56:53;16.20;;;11.30;;
3022;SDS011;1521;53.584;9.938;2023-04-07T00:59:19;19.83;;;13.57;;
3022;SDS011;1521;53.584;9.938;2023-04-07T01:01:54;19.93;;;12.57;;
3022;SDS011;1521;53.584;9.938;2023-04-07T01:04:37;18.90;;;12.93;;
3022;SDS011;1521;53.584;9.938;2023-04-07T01:07:23;16.00;;;12.50;;
3022;SDS011;1521;53.584;9.938;2023-04-07T01:09:57;18.80;;;13.40;;
3022;SDS011;1521;53.584;9.938;2023-04-07T01:12:46;18.87;;;12.40;;
3022;SDS011;1521;53.584;9.938;2023-04-07T01:15:29;19.53;;;12.40;;
3022;SDS011;1521;53.584;9.938;2023-04-07T01:18:39;19.20;;;12.73;;
3022;SDS011;1521;53.584;9.938;2023-04-07T01:20:49;19.33;;;11.70;;
3022;SDS011;1521;53.584;9.938;2023-04-07T01:23:20;18.10;;;12.47;;
3022;SDS011;1521;53.584;9.938;2023-04-07T01:26:06;17.17;;;12.10;;
3022;SDS011;1521;53.584;9.938;2023-04-07T01:31:26;15.70;;;12.70;;
3022;SDS011;1521;53.584;9.938;2023-04-07T01:33:54;18.50;;;12.43;;
3022;SDS011;1521;53.584;9.938;2023-04-07T01:36:23;21.53;;;12.90;;
3022;SDS011;1521;53.584;9.938;2023-04-07T01:38:52;17.33;;;12.63;;
3022;SDS011;1521;53.584;9.938;2023-04-07T01:41:18;21.27;;;11.83;;
3022;SDS011;1521;53.584;9.938;2023-04-07T01:43:45;21.33;;;12.27;;
3022;SDS011;1521;53.584;9.938;2023-04-07T01:46:12;16.40;;;11.80;;
3022;SDS011;1521;53.584;9.938;2023-04-07T01:48:39;16.90;;;12.23;;
3022;SDS011;1521;53.584;9.938;2023-04-07T01:51:06;17.60;;;12.20;;
3022;SDS011;1521;53.584;9.938;2023-04-07T01:53:33;15.00;;;11.27;;
3022;SDS011;1521;53.584;9.938;2023-04-07T01:56:01;19.10;;;10.90;;
3022;SDS011;1521;53.584;9.938;2023-04-07T01:58:28;16.47;;;11.47;;
3022;SDS011;1521;53.584;9.938;2023-04-07T02:00:53;14.30;;;12.00;;
3022;SDS011;1521;53.584;9.938;2023-04-07T02:03:19;18.10;;;11.70;;
3022;SDS011;1521;53.584;9.938;2023-04-07T02:06:02;17.73;;;11.97;;
3022;SDS011;1521;53.584;9.938;2023-04-07T02:08:31;16.80;;;11.27;;
3022;SDS011;1521;53.584;9.938;2023-04-07T02:11:00;16.17;;;11.57;;
3022;SDS011;1521;53.584;9.938;2023-04-07T02:13:27;17.63;;;11.70;;
3022;SDS011;1521;53.584;9.938;2023-04-07T02:15:54;17.83;;;11.90;;
3022;SDS011;1521;53.584;9.938;2023-04-07T02:18:22;15.07;;;11.00;;
3022;SDS011;1521;53.584;9.938;2023-04-07T02:20:49;16.00;;;11.40;;
3022;SDS011;1521;53.584;9.938;2023-04-07T02:23:16;15.43;;;11.70;;
3022;SDS011;1521;53.584;9.938;2023-04-07T02:25:41;17.07;;;11.07;;
3022;SDS011;1521;53.584;9.938;2023-04-07T02:28:07;15.90;;;10.63;;
3022;SDS011;1521;53.584;9.938;2023-04-07T02:30:33;17.00;;;11.20;;
3022;SDS011;1521;53.584;9.938;2023-04-07T02:32:59;15.57;;;10.70;;
3022;SDS011;1521;53.584;9.938;2023-04-07T02:35:25;15.27;;;11.03;;
3022;SDS011;1521;53.584;9.938;2023-04-07T02:37:51;15.10;;;11.53;;
3022;SDS011;1521;53.584;9.938;2023-04-07T02:40:16;14.33;;;10.90;;
3022;SDS011;1521;53.584;9.938;2023-04-07T02:42:42;17.70;;;11.27;;
3022;SDS011;1521;53.584;9.938;2023-04-07T02:45:08;13.70;;;11.00;;
3022;SDS011;1521;53.584;9.938;2023-04-07T02:47:35;10.87;;;8.93;;
3022;SDS011;1521;53.584;9.938;2023-04-07T02:50:01;17.37;;;10.10;;
3022;SDS011;1521;53.584;9.938;2023-04-07T02:52:27;14.03;;;10.30;;
3022;SDS011;1521;53.584;9.938;2023-04-07T02:54:53;16.90;;;10.43;;
3022;SDS011;1521;53.584;9.938;2023-04-07T02:57:18;12.70;;;9.50;;
3022;SDS011;1521;53.584;9.938;2023-04-07T02:59:44;12.57;;;9.03;;
3022;SDS011;1521;53.584;9.938;2023-04-07T03:02:10;13.20;;;10.00;;
3022;SDS011;1521;53.584;9.938;2023-04-07T03:04:35;13.23;;;9.67;;
3022;SDS011;1521;53.584;9.938;2023-04-07T03:07:01;12.98;;;10.00;;
3022;SDS011;1521;53.584;9.938;2023-04-07T03:09:27;13.00;;;10.10;;
3022;SDS011;1521;53.584;9.938;2023-04-07T03:11:52;13.03;;;9.77;;
3022;SDS011;1521;53.584;9.938;2023-04-07T03:14:18;12.97;;;9.63;;
3022;SDS011;1521;53.584;9.938;2023-04-07T03:16:44;13.43;;;8.70;;
3022;SDS011;1521;53.584;9.938;2023-04-07T03:19:10;11.97;;;9.50;;
3022;SDS011;1521;53.584;9.938;2023-04-07T03:21:36;13.47;;;9.40;;
3022;SDS011;1521;53.584;9.938;2023-04-07T03:24:02;11.73;;;8.57;;
3022;SDS011;1521;53.584;9.938;2023-04-07T03:26:29;13.80;;;9.10;;
3022;SDS011;1521;53.584;9.938;2023-04-07T03:28:54;17.63;;;9.70;;
3022;SDS011;1521;53.584;9.938;2023-04-07T03:31:20;14.80;;;9.47;;
3022;SDS011;1521;53.584;9.938;2023-04-07T03:33:48;12.20;;;8.70;;
3022;SDS011;1521;53.584;9.938;2023-04-07T03:36:14;14.23;;;9.70;;
3022;SDS011;1521;53.584;9.938;2023-04-07T03:38:41;14.07;;;9.63;;
3022;SDS011;1521;53.584;9.938;2023-04-07T03:41:06;14.17;;;10.20;;
3022;SDS011;1521;53.584;9.938;2023-04-07T03:43:32;11.23;;;8.97;;
3022;SDS011;1521;53.584;9.938;2023-04-07T03:45:58;14.57;;;10.03;;
3022;SDS011;1521;53.584;9.938;2023-04-07T03:48:23;16.00;;;9.20;;
3022;SDS011;1521;53.584;9.938;2023-04-07T03:50:49;12.50;;;9.13;;
3022;SDS011;1521;53.584;9.938;2023-04-07T03:53:14;14.13;;;9.20;;
3022;SDS011;1521;53.584;9.938;2023-04-07T03:55:41;13.80;;;9.83;;
3022;SDS011;1521;53.584;9.938;2023-04-07T03:58:08;12.77;;;9.20;;
3022;SDS011;1521;53.584;9.938;2023-04-07T04:00:33;13.50;;;9.60;;
3022;SDS011;1521;53.584;9.938;2023-04-07T04:02:59;16.10;;;9.40;;
3022;SDS011;1521;53.584;9.938;2023-04-07T04:05:25;12.63;;;9.43;;
3022;SDS011;1521;53.584;9.938;2023-04-07T04:07:51;13.53;;;9.20;;
3022;SDS011;1521;53.584;9.938;2023-04-07T04:10:19;13.80;;;9.47;;
3022;SDS011;1521;53.584;9.938;2023-04-07T04:12:46;12.73;;;9.40;;
3022;SDS011;1521;53.584;9.938;2023-04-07T04:15:12;11.90;;;8.87;;
3022;SDS011;1521;53.584;9.938;2023-04-07T04:17:38;12.20;;;9.30;;
3022;SDS011;1521;53.584;9.938;2023-04-07T04:20:04;13.43;;;9.40;;
3022;SDS011;1521;53.584;9.938;2023-04-07T04:22:30;15.30;;;9.20;;
3022;SDS011;1521;53.584;9.938;2023-04-07T04:24:56;11.57;;;8.53;;
3022;SDS011;1521;53.584;9.938;2023-04-07T04:27:21;11.60;;;8.50;;
3022;SDS011;1521;53.584;9.938;2023-04-07T04:29:47;11.60;;;9.00;;
3022;SDS011;1521;53.584;9.938;2023-04-07T04:32:13;11.70;;;9.10;;
3022;SDS011;1521;53.584;9.938;2023-04-07T04:34:38;12.03;;;9.20;;
3022;SDS011;1521;53.584;9.938;2023-04-07T04:37:06;11.87;;;8.90;;
3022;SDS011;1521;53.584;9.938;2023-04-07T04:39:31;12.60;;;8.97;;
3022;SDS011;1521;53.584;9.938;2023-04-07T04:41:57;11.90;;;8.13;;
3022;SDS011;1521;53.584;9.938;2023-04-07T04:44:23;12.40;;;8.80;;
3022;SDS011;1521;53.584;9.938;2023-04-07T04:46:48;11.37;;;8.70;;
3022;SDS011;1521;53.584;9.938;2023-04-07T04:49:15;13.47;;;8.67;;
3022;SDS011;1521;53.584;9.938;2023-04-07T04:51:42;11.60;;;8.60;;
3022;SDS011;1521;53.584;9.938;2023-04-07T04:54:08;13.53;;;8.80;;
3022;SDS011;1521;53.584;9.938;2023-04-07T04:56:34;12.03;;;9.07;;
3022;SDS011;1521;53.584;9.938;2023-04-07T04:59:01;11.83;;;8.73;;
3022;SDS011;1521;53.584;9.938;2023-04-07T05:01:27;12.00;;;8.83;;
3022;SDS011;1521;53.584;9.938;2023-04-07T05:03:52;13.57;;;8.30;;
3022;SDS011;1521;53.584;9.938;2023-04-07T05:06:18;13.63;;;8.67;;
3022;SDS011;1521;53.584;9.938;2023-04-07T05:08:43;9.50;;;7.87;;
3022;SDS011;1521;53.584;9.938;2023-04-07T05:11:10;12.50;;;8.60;;
3022;SDS011;1521;53.584;9.938;2023-04-07T05:13:35;11.13;;;7.90;;
3022;SDS011;1521;53.584;9.938;2023-04-07T05:16:01;12.50;;;8.70;;
3022;SDS011;1521;53.584;9.938;2023-04-07T05:18:27;13.23;;;8.77;;
3022;SDS011;1521;53.584;9.938;2023-04-07T05:20:52;14.53;;;8.23;;
3022;SDS011;1521;53.584;9.938;2023-04-07T05:23:18;10.87;;;8.03;;
3022;SDS011;1521;53.584;9.938;2023-04-07T05:25:43;10.73;;;8.20;;
3022;SDS011;1521;53.584;9.938;2023-04-07T05:28:09;15.10;;;8.87;;
3022;SDS011;1521;53.584;9.938;2023-04-07T05:30:34;9.93;;;8.23;;
3022;SDS011;1521;53.584;9.938;2023-04-07T05:33:00;11.60;;;8.40;;
3022;SDS011;1521;53.584;9.938;2023-04-07T05:35:26;12.80;;;8.20;;
3022;SDS011;1521;53.584;9.938;2023-04-07T05:37:51;11.30;;;7.73;;
3022;SDS011;1521;53.584;9.938;2023-04-07T05:40:17;13.10;;;8.00;;
3022;SDS011;1521;53.584;9.938;2023-04-07T05:42:43;11.83;;;8.90;;
3022;SDS011;1521;53.584;9.938;2023-04-07T05:45:08;9.97;;;8.07;;
3022;SDS011;1521;53.584;9.938;2023-04-07T05:47:34;12.60;;;9.00;;
3022;SDS011;1521;53.584;9.938;2023-04-07T05:50:00;12.60;;;8.10;;
3022;SDS011;1521;53.584;9.938;2023-04-07T05:52:27;13.93;;;7.60;;
3022;SDS011;1521;53.584;9.938;2023-04-07T05:54:52;13.90;;;8.77;;
3022;SDS011;1521;53.584;9.938;2023-04-07T05:57:18;12.47;;;8.80;;
3022;SDS011;1521;53.584;9.938;2023-04-07T05:59:43;14.47;;;8.60;;
3022;SDS011;1521;53.584;9.938;2023-04-07T06:02:09;12.77;;;8.27;;
3022;SDS011;1521;53.584;9.938;2023-04-07T06:04:35;13.90;;;8.10;;
3022;SDS011;1521;53.584;9.938;2023-04-07T06:07:01;12.17;;;7.77;;
3022;SDS011;1521;53.584;9.938;2023-04-07T06:09:27;14.50;;;8.80;;
3022;SDS011;1521;53.584;9.938;2023-04-07T06:11:52;10.20;;;7.60;;
3022;SDS011;1521;53.584;9.938;2023-04-07T06:14:18;9.33;;;7.17;;
3022;SDS011;1521;53.584;9.938;2023-04-07T06:16:43;11.80;;;7.70;;
3022;SDS011;1521;53.584;9.938;2023-04-07T06:19:09;10.10;;;7.37;;
3022;SDS011;1521;53.584;9.938;2023-04-07T06:21:35;11.50;;;7.47;;
3022;SDS011;1521;53.584;9.938;2023-04-07T06:24:01;12.90;;;7.90;;
3022;SDS011;1521;53.584;9.938;2023-04-07T06:26:26;12.20;;;8.43;;
3022;SDS011;1521;53.584;9.938;2023-04-07T06:28:52;10.47;;;7.17;;
3022;SDS011;1521;53.584;9.938;2023-04-07T06:31:18;12.63;;;8.10;;
3022;SDS011;1521;53.584;9.938;2023-04-07T06:33:44;11.47;;;7.80;;
3022;SDS011;1521;53.584;9.938;2023-04-07T06:36:10;9.93;;;7.70;;
3022;SDS011;1521;53.584;9.938;2023-04-07T06:38:36;12.73;;;7.60;;
3022;SDS011;1521;53.584;9.938;2023-04-07T06:41:02;14.70;;;8.13;;
3022;SDS011;1521;53.584;9.938;2023-04-07T06:43:28;13.13;;;7.90;;
3022;SDS011;1521;53.584;9.938;2023-04-07T06:45:54;12.33;;;8.40;;
3022;SDS011;1521;53.584;9.938;2023-04-07T06:48:20;13.53;;;7.80;;
3022;SDS011;1521;53.584;9.938;2023-04-07T06:50:47;11.50;;;8.20;;
3022;SDS011;1521;53.584;9.938;2023-04-07T06:53:13;11.47;;;8.10;;
3022;SDS011;1521;53.584;9.938;2023-04-07T06:55:39;12.90;;;8.60;;
3022;SDS011;1521;53.584;9.938;2023-04-07T06:58:05;11.27;;;8.03;;
3022;SDS011;1521;53.584;9.938;2023-04-07T07:00:31;10.83;;;8.07;;
3022;SDS011;1521;53.584;9.938;2023-04-07T07:02:56;14.80;;;8.50;;
3022;SDS011;1521;53.584;9.938;2023-04-07T07:05:22;12.40;;;8.50;;
3022;SDS011;1521;53.584;9.938;2023-04-07T07:07:48;13.40;;;8.20;;
3022;SDS011;1521;53.584;9.938;2023-04-07T07:10:14;13.70;;;8.30;;
3022;SDS011;1521;53.584;9.938;2023-04-07T07:12:40;19.83;;;9.17;;
3022;SDS011;1521;53.584;9.938;2023-04-07T07:15:06;12.67;;;8.20;;
3022;SDS011;1521;53.584;9.938;2023-04-07T07:17:31;12.23;;;7.60;;
3022;SDS011;1521;53.584;9.938;2023-04-07T07:19:58;10.70;;;7.60;;
3022;SDS011;1521;53.584;9.938;2023-04-07T07:22:23;8.93;;;7.60;;
3022;SDS011;1521;53.584;9.938;2023-04-07T07:24:49;17.17;;;8.10;;
3022;SDS011;1521;53.584;9.938;2023-04-07T07:27:15;13.77;;;8.47;;
3022;SDS011;1521;53.584;9.938;2023-04-07T07:29:40;11.60;;;8.17;;
3022;SDS011;1521;53.584;9.938;2023-04-07T07:32:06;11.63;;;8.23;;
3022;SDS011;1521;53.584;9.938;2023-04-07T07:34:32;8.30;;;7.17;;
3022;SDS011;1521;53.584;9.938;2023-04-07T07:36:57;12.17;;;7.97;;
3022;SDS011;1521;53.584;9.938;2023-04-07T07:39:24;10.43;;;7.80;;
3022;SDS011;1521;53.584;9.938;2023-04-07T07:41:50;10.53;;;7.57;;
3022;SDS011;1521;53.584;9.938;2023-04-07T07:44:16;9.83;;;7.93;;
3022;SDS011;1521;53.584;9.938;2023-04-07T07:46:44;10.73;;;7.60;;
3022;SDS011;1521;53.584;9.938;2023-04-07T07:49:09;9.70;;;7.63;;
3022;SDS011;1521;53.584;9.938;2023-04-07T07:51:35;12.00;;;7.63;;
3022;SDS011;1521;53.584;9.938;2023-04-07T07:54:01;8.80;;;7.13;;
3022;SDS011;1521;53.584;9.938;2023-04-07T07:56:27;10.60;;;7.90;;
3022;SDS011;1521;53.584;9.938;2023-04-07T07:58:53;10.00;;;7.50;;
3022;SDS011;1521;53.584;9.938;2023-04-07T08:01:18;11.40;;;8.27;;
3022;SDS011;1521;53.584;9.938;2023-04-07T08:03:44;10.57;;;7.17;;
3022;SDS011;1521;53.584;9.938;2023-04-07T08:06:10;12.20;;;7.43;;
3022;SDS011;1521;53.584;9.938;2023-04-07T08:08:35;9.27;;;7.40;;
3022;SDS011;1521;53.584;9.938;2023-04-07T08:11:01;10.00;;;7.03;;
3022;SDS011;1521;53.584;9.938;2023-04-07T08:13:27;8.87;;;6.67;;
3022;SDS011;1521;53.584;9.938;2023-04-07T08:15:53;8.80;;;6.90;;
3022;SDS011;1521;53.584;9.938;2023-04-07T08:18:18;10.70;;;7.50;;
3022;SDS011;1521;53.584;9.938;2023-04-07T08:20:44;9.40;;;7.17;;
3022;SDS011;1521;53.584;9.938;2023-04-07T08:23:10;8.00;;;6.70;;
3022;SDS011;1521;53.584;9.938;2023-04-07T08:25:36;7.53;;;6.60;;
3022;SDS011;1521;53.584;9.938;2023-04-07T08:28:04;12.10;;;6.73;;
3022;SDS011;1521;53.584;9.938;2023-04-07T08:30:30;9.17;;;6.73;;
3022;SDS011;1521;53.584;9.938;2023-04-07T08:32:55;10.07;;;6.30;;
3022;SDS011;1521;53.584;9.938;2023-04-07T08:35:21;12.53;;;7.00;;
3022;SDS011;1521;53.584;9.938;2023-04-07T08:37:47;14.03;;;6.87;;
3022;SDS011;1521;53.584;9.938;2023-04-07T08:40:13;7.53;;;5.90;;
3022;SDS011;1521;53.584;9.938;2023-04-07T08:42:40;9.20;;;6.97;;
3022;SDS011;1521;53.584;9.938;2023-04-07T08:45:10;7.57;;;6.07;;
3022;SDS011;1521;53.584;9.938;2023-04-07T08:47:37;9.47;;;6.53;;
3022;SDS011;1521;53.584;9.938;2023-04-07T08:50:06;10.07;;;6.80;;
3022;SDS011;1521;53.584;9.938;2023-04-07T08:52:34;9.80;;;6.80;;
3022;SDS011;1521;53.584;9.938;2023-04-07T08:55:12;7.37;;;5.67;;
3022;SDS011;1521;53.584;9.938;2023-04-07T08:57:38;9.73;;;7.00;;
3022;SDS011;1521;53.584;9.938;2023-04-07T09:00:06;10.93;;;6.63;;
3022;SDS011;1521;53.584;9.938;2023-04-07T09:02:32;11.70;;;7.10;;
3022;SDS011;1521;53.584;9.938;2023-04-07T09:04:59;10.47;;;7.00;;
3022;SDS011;1521;53.584;9.938;2023-04-07T09:07:27;9.37;;;6.50;;
3022;SDS011;1521;53.584;9.938;2023-04-07T09:09:53;10.90;;;7.80;;
3022;SDS011;1521;53.584;9.938;2023-04-07T09:12:20;10.40;;;7.07;;
3022;SDS011;1521;53.584;9.938;2023-04-07T09:14:45;10.80;;;6.90;;
3022;SDS011;1521;53.584;9.938;2023-04-07T09:17:11;14.40;;;6.60;;
3022;SDS011;1521;53.584;9.938;2023-04-07T09:19:36;11.93;;;7.57;;
3022;SDS011;1521;53.584;9.938;2023-04-07T09:22:02;12.90;;;8.10;;
3022;SDS011;1521;53.584;9.938;2023-04-07T09:24:28;11.23;;;7.73;;
3022;SDS011;1521;53.584;9.938;2023-04-07T09:27:15;8.47;;;7.37;;
3022;SDS011;1521;53.584;9.938;2023-04-07T09:29:43;7.97;;;6.60;;
3022;SDS011;1521;53.584;9.938;2023-04-07T09:32:10;9.50;;;6.47;;
3022;SDS011;1521;53.584;9.938;2023-04-07T09:34:38;9.13;;;7.20;;
3022;SDS011;1521;53.584;9.938;2023-04-07T09:37:05;9.57;;;7.20;;
3022;SDS011;1521;53.584;9.938;2023-04-07T09:39:33;9.53;;;7.20;;
3022;SDS011;1521;53.584;9.938;2023-04-07T09:42:12;10.30;;;7.60;;
3022;SDS011;1521;53.584;9.938;2023-04-07T09:44:38;12.30;;;7.77;;
3022;SDS011;1521;53.584;9.938;2023-04-07T09:47:05;10.60;;;7.07;;
3022;SDS011;1521;53.584;9.938;2023-04-07T09:49:31;8.50;;;7.23;;
3022;SDS011;1521;53.584;9.938;2023-04-07T09:51:58;9.97;;;7.60;;
3022;SDS011;1521;53.584;9.938;2023-04-07T09:57:02;10.47;;;7.40;;
3022;SDS011;1521;53.584;9.938;2023-04-07T09:59:29;10.70;;;7.87;;
3022;SDS011;1521;53.584;9.938;2023-04-07T10:01:56;11.33;;;8.03;;
3022;SDS011;1521;53.584;9.938;2023-04-07T10:04:23;11.40;;;8.67;;
3022;SDS011;1521;53.584;9.938;2023-04-07T10:06:49;12.60;;;8.80;;
3022;SDS011;1521;53.584;9.938;2023-04-07T10:09:16;15.20;;;8.00;;
3022;SDS011;1521;53.584;9.938;2023-04-07T10:11:42;10.50;;;7.77;;
3022;SDS011;1521;53.584;9.938;2023-04-07T10:14:08;11.17;;;7.93;;
3022;SDS011;1521;53.584;9.938;2023-04-07T10:16:38;8.00;;;6.77;;
3022;SDS011;1521;53.584;9.938;2023-04-07T10:19:06;8.67;;;6.80;;
3022;SDS011;1521;53.584;9.938;2023-04-07T10:21:37;8.97;;;6.37;;
3022;SDS011;1521;53.584;9.938;2023-04-07T10:26:33;8.10;;;6.40;;
3022;SDS011;1521;53.584;9.938;2023-04-07T10:29:05;9.47;;;6.20;;
3022;SDS011;1521;53.584;9.938;2023-04-07T10:31:34;8.27;;;5.90;;
3022;SDS011;1521;53.584;9.938;2023-04-07T10:34:01;7.10;;;6.10;;
3022;SDS011;1521;53.584;9.938;2023-04-07T10:36:27;7.23;;;6.03;;
3022;SDS011;1521;53.584;9.938;2023-04-07T10:41:37;9.40;;;6.30;;
3022;SDS011;1521;53.584;9.938;2023-04-07T10:44:07;6.93;;;5.60;;
3022;SDS011;1521;53.584;9.938;2023-04-07T10:49:09;7.80;;;6.20;;
3022;SDS011;1521;53.584;9.938;2023-04-07T10:51:36;7.30;;;6.10;;
3022;SDS011;1521;53.584;9.938;2023-04-07T10:54:20;7.40;;;5.57;;
3022;SDS011;1521;53.584;9.938;2023-04-07T10:59:27;8.83;;;6.27;;
3022;SDS011;1521;53.584;9.938;2023-04-07T11:04:42;9.03;;;6.20;;
3022;SDS011;1521;53.584;9.938;2023-04-07T11:07:09;8.60;;;6.43;;
3022;SDS011;1521;53.584;9.938;2023-04-07T11:09:35;8.90;;;6.30;;
3022;SDS011;1521;53.584;9.938;2023-04-07T11:12:01;12.23;;;6.30;;
3022;SDS011;1521;53.584;9.938;2023-04-07T11:14:27;9.87;;;7.00;;
3022;SDS011;1521;53.584;9.938;2023-04-07T11:16:54;8.10;;;6.57;;
3022;SDS011;1521;53.584;9.938;2023-04-07T11:19:20;8.77;;;6.13;;
3022;SDS011;1521;53.584;9.938;2023-04-07T11:21:46;6.97;;;6.27;;
3022;SDS011;1521;53.584;9.938;2023-04-07T11:27:16;8.00;;;6.33;;
3022;SDS011;1521;53.584;9.938;2023-04-07T11:29:42;12.17;;;7.10;;
3022;SDS011;1521;53.584;9.938;2023-04-07T11:32:08;9.50;;;7.50;;
3022;SDS011;1521;53.584;9.938;2023-04-07T11:34:34;11.97;;;7.70;;
3022;SDS011;1521;53.584;9.938;2023-04-07T11:37:19;8.70;;;6.90;;
3022;SDS011;1521;53.584;9.938;2023-04-07T11:42:31;9.50;;;6.53;;
3022;SDS011;1521;53.584;9.938;2023-04-07T11:44:57;10.60;;;7.40;;
3022;SDS011;1521;53.584;9.938;2023-04-07T11:47:32;8.33;;;7.00;;
3022;SDS011;1521;53.584;9.938;2023-04-07T11:49:59;9.97;;;7.20;;
3022;SDS011;1521;53.584;9.938;2023-04-07T11:52:25;9.50;;;6.20;;
3022;SDS011;1521;53.584;9.938;2023-04-07T11:54:51;8.30;;;6.20;;
3022;SDS011;1521;53.584;9.938;2023-04-07T11:57:27;8.43;;;6.40;;
3022;SDS011;1521;53.584;9.938;2023-04-07T12:00:08;6.60;;;5.90;;
3022;SDS011;1521;53.584;9.938;2023-04-07T12:02:35;7.60;;;6.03;;
3022;SDS011;1521;53.584;9.938;2023-04-07T12:05:02;8.57;;;5.73;;
3022;SDS011;1521;53.584;9.938;2023-04-07T12:07:31;8.60;;;5.53;;
3022;SDS011;1521;53.584;9.938;2023-04-07T12:09:57;7.57;;;4.90;;
3022;SDS011;1521;53.584;9.938;2023-04-07T12:12:29;5.53;;;4.70;;
3022;SDS011;1521;53.584;9.938;2023-04-07T12:14:57;7.50;;;5.50;;
3022;SDS011;1521;53.584;9.938;2023-04-07T12:17:23;6.53;;;5.30;;
3022;SDS011;1521;53.584;9.938;2023-04-07T12:19:49;8.13;;;5.70;;
3022;SDS011;1521;53.584;9.938;2023-04-07T12:22:15;6.67;;;5.20;;
3022;SDS011;1521;53.584;9.938;2023-04-07T12:24:41;7.70;;;6.10;;
3022;SDS011;1521;53.584;9.938;2023-04-07T12:27:06;7.93;;;4.97;;
3022;SDS011;1521;53.584;9.938;2023-04-07T12:29:32;7.53;;;4.80;;
3022;SDS011;1521;53.584;9.938;2023-04-07T12:31:58;6.67;;;5.40;;
3022;SDS011;1521;53.584;9.938;2023-04-07T12:34:24;6.33;;;4.90;;
3022;SDS011;1521;53.584;9.938;2023-04-07T12:36:51;5.93;;;5.13;;
3022;SDS011;1521;53.584;9.938;2023-04-07T12:39:17;9.43;;;5.00;;
3022;SDS011;1521;53.584;9.938;2023-04-07T12:41:42;5.50;;;4.50;;
3022;SDS011;1521;53.584;9.938;2023-04-07T12:44:10;5.90;;;4.20;;
3022;SDS011;1521;53.584;9.938;2023-04-07T12:46:35;5.53;;;4.67;;
3022;SDS011;1521;53.584;9.938;2023-04-07T12:49:01;4.30;;;3.90;;
3022;SDS011;1521;53.584;9.938;2023-04-07T12:51:27;9.83;;;5.00;;
3022;SDS011;1521;53.584;9.938;2023-04-07T12:53:53;6.87;;;4.23;;
3022;SDS011;1521;53.584;9.938;2023-04-07T12:56:19;5.50;;;3.87;;
3022;SDS011;1521;53.584;9.938;2023-04-07T12:58:46;4.50;;;4.00;;
3022;SDS011;1521;53.584;9.938;2023-04-07T13:01:12;5.40;;;4.20;;
3022;SDS011;1521;53.584;9.938;2023-04-07T13:03:38;4.30;;;3.87;;
3022;SDS011;1521;53.584;9.938;2023-04-07T13:06:04;5.30;;;4.30;;
3022;SDS011;1521;53.584;9.938;2023-04-07T13:08:29;5.90;;;3.60;;
3022;SDS011;1521;53.584;9.938;2023-04-07T13:10:55;5.70;;;4.03;;
3022;SDS011;1521;53.584;9.938;2023-04-07T13:13:21;8.53;;;3.20;;
3022;SDS011;1521;53.584;9.938;2023-04-07T13:15:47;3.17;;;2.87;;
3022;SDS011;1521;53.584;9.938;2023-04-07T13:18:13;3.07;;;2.77;;
3022;SDS011;1521;53.584;9.938;2023-04-07T13:20:38;3.90;;;3.27;;
3022;SDS011;1521;53.584;9.938;2023-04-07T13:23:04;5.30;;;3.07;;
3022;SDS011;1521;53.584;9.938;2023-04-07T13:25:30;5.03;;;3.13;;
3022;SDS011;1521;53.584;9.938;2023-04-07T13:27:56;4.93;;;2.93;;
3022;SDS011;1521;53.584;9.938;2023-04-07T13:30:21;4.10;;;3.17;;
3022;SDS011;1521;53.584;9.938;2023-04-07T13:32:47;3.20;;;2.90;;
3022;SDS011;1521;53.584;9.938;2023-04-07T13:35:14;3.53;;;2.60;;
3022;SDS011;1521;53.584;9.938;2023-04-07T13:37:41;3.80;;;2.43;;
3022;SDS011;1521;53.584;9.938;2023-04-07T13:40:08;5.63;;;2.83;;
3022;SDS011;1521;53.584;9.938;2023-04-07T13:42:34;4.33;;;2.83;;
3022;SDS011;1521;53.584;9.938;2023-04-07T13:45:00;4.30;;;3.07;;
3022;SDS011;1521;53.584;9.938;2023-04-07T13:47:25;3.90;;;2.90;;
3022;SDS011;1521;53.584;9.938;2023-04-07T13:49:53;3.70;;;2.53;;
3022;SDS011;1521;53.584;9.938;2023-04-07T13:52:18;4.30;;;3.20;;
3022;SDS011;1521;53.584;9.938;2023-04-07T13:54:44;4.43;;;2.53;;
3022;SDS011;1521;53.584;9.938;2023-04-07T13:57:10;4.60;;;2.70;;
3022;SDS011;1521;53.584;9.938;2023-04-07T13:59:36;4.53;;;3.10;;
3022;SDS011;1521;53.584;9.938;2023-04-07T14:02:02;5.20;;;3.00;;
3022;SDS011;1521;53.584;9.938;2023-04-07T14:04:27;8.17;;;3.50;;
3022;SDS011;1521;53.584;9.938;2023-04-07T14:06:53;4.23;;;3.03;;
3022;SDS011;1521;53.584;9.938;2023-04-07T14:09:19;4.20;;;3.40;;
3022;SDS011;1521;53.584;9.938;2023-04-07T14:11:44;3.70;;;3.17;;
3022;SDS011;1521;53.584;9.938;2023-04-07T14:14:10;4.40;;;3.37;;
3022;SDS011;1521;53.584;9.938;2023-04-07T14:16:36;5.40;;;3.67;;
3022;SDS011;1521;53.584;9.938;2023-04-07T14:19:02;6.53;;;3.93;;
3022;SDS011;1521;53.584;9.938;2023-04-07T14:21:28;7.30;;;4.13;;
3022;SDS011;1521;53.584;9.938;2023-04-07T14:23:55;8.27;;;4.47;;
3022;SDS011;1521;53.584;9.938;2023-04-07T14:26:21;6.40;;;4.13;;
3022;SDS011;1521;53.584;9.938;2023-04-07T14:28:46;4.63;;;4.03;;
3022;SDS011;1521;53.584;9.938;2023-04-07T14:31:13;4.63;;;4.10;;
3022;SDS011;1521;53.584;9.938;2023-04-07T14:33:39;10.20;;;4.13;;
3022;SDS011;1521;53.584;9.938;2023-04-07T14:36:08;6.10;;;4.10;;
3022;SDS011;1521;53.584;9.938;2023-04-07T14:38:34;6.13;;;4.27;;
3022;SDS011;1521;53.584;9.938;2023-04-07T14:40:59;5.03;;;3.73;;
3022;SDS011;1521;53.584;9.938;2023-04-07T14:43:27;4.93;;;3.80;;
3022;SDS011;1521;53.584;9.938;2023-04-07T14:45:52;9.43;;;4.47;;
3022;SDS011;1521;53.584;9.938;2023-04-07T14:48:18;6.87;;;4.70;;
3022;SDS011;1521;53.584;9.938;2023-04-07T14:50:44;11.40;;;4.80;;
3022;SDS011;1521;53.584;9.938;2023-04-07T14:53:09;5.83;;;4.60;;
3022;SDS011;1521;53.584;9.938;2023-04-07T14:55:35;4.80;;;4.23;;
3022;SDS011;1521;53.584;9.938;2023-04-07T14:58:01;8.67;;;4.50;;
3022;SDS011;1521;53.584;9.938;2023-04-07T15:00:26;6.87;;;4.40;;
3022;SDS011;1521;53.584;9.938;2023-04-07T15:02:53;8.50;;;4.77;;
3022;SDS011;1521;53.584;9.938;2023-04-07T15:05:19;8.93;;;4.93;;
3022;SDS011;1521;53.584;9.938;2023-04-07T15:07:47;10.07;;;4.93;;
3022;SDS011;1521;53.584;9.938;2023-04-07T15:10:14;8.10;;;5.07;;
3022;SDS011;1521;53.584;9.938;2023-04-07T15:12:42;10.77;;;6.27;;
3022;SDS011;1521;53.584;9.938;2023-04-07T15:15:10;5.50;;;4.80;;
3022;SDS011;1521;53.584;9.938;2023-04-07T15:17:36;6.40;;;4.50;;
3022;SDS011;1521;53.584;9.938;2023-04-07T15:20:02;7.00;;;4.77;;
3022;SDS011;1521;53.584;9.938;2023-04-07T15:22:28;6.60;;;5.20;;
3022;SDS011;1521;53.584;9.938;2023-04-07T15:24:54;8.07;;;5.20;;
3022;SDS011;1521;53.584;9.938;2023-04-07T15:27:20;5.67;;;4.80;;